sensor_id;sensor_type;location;lat;lon;timestamp;pressure;altitude;pressure_sealevel;temperature;humidity
34983;BME280;21187;50.976;13.720;2022-10-31T00:03:54;98636.81;;;19.28;40.25
34983;BME280;21187;50.976;13.720;2022-10-31T00:08:58;98631.00;;;19.04;40.60
34983;BME280;21187;50.976;13.720;2022-10-31T00:14:01;98634.53;;;18.87;40.97
34983;BME280;21187;50.976;13.720;2022-10-31T00:19:06;98643.56;;;18.76;41.11
34983;BME280;21187;50.976;13.720;2022-10-31T00:24:08;98654.53;;;18.62;41.28
34983;BME280;21187;50.976;13.720;2022-10-31T00:29:10;98653.34;;;18.49;41.33
34983;BME280;21187;50.976;13.720;2022-10-31T00:34:12;98653.75;;;18.40;41.60
34983;BME280;21187;50.976;13.720;2022-10-31T00:39:13;98662.34;;;18.31;41.50
34983;BME280;21187;50.976;13.720;2022-10-31T00:44:15;98660.41;;;18.24;41.69
34983;BME280;21187;50.976;13.720;2022-10-31T00:49:17;98661.97;;;18.22;41.55
34983;BME280;21187;50.976;13.720;2022-10-31T00:54:19;98666.25;;;18.19;41.54
34983;BME280;21187;50.976;13.720;2022-10-31T00:59:21;98660.00;;;18.22;41.57
34983;BME280;21187;50.976;13.720;2022-10-31T01:04:24;98660.00;;;18.19;41.64
34983;BME280;21187;50.976;13.720;2022-10-31T01:09:26;98663.09;;;18.10;41.74
34983;BME280;21187;50.976;13.720;2022-10-31T01:14:28;98667.41;;;18.07;41.77
34983;BME280;21187;50.976;13.720;2022-10-31T01:19:31;98659.22;;;18.15;41.56
34983;BME280;21187;50.976;13.720;2022-10-31T01:24:33;98666.28;;;18.30;41.49
34983;BME280;21187;50.976;13.720;2022-10-31T01:29:36;98661.59;;;18.41;41.18
34983;BME280;21187;50.976;13.720;2022-10-31T01:34:38;98667.06;;;18.49;41.27
34983;BME280;21187;50.976;13.720;2022-10-31T01:39:39;98665.53;;;18.48;41.42
34983;BME280;21187;50.976;13.720;2022-10-31T01:49:50;98666.25;;;18.16;41.72
34983;BME280;21187;50.976;13.720;2022-10-31T01:54:58;98658.41;;;18.03;41.91
34983;BME280;21187;50.976;13.720;2022-10-31T02:00:08;98659.50;;;17.88;42.13
34983;BME280;21187;50.976;13.720;2022-10-31T02:05:18;98663.38;;;17.79;42.48
34983;BME280;21187;50.976;13.720;2022-10-31T02:10:22;98672.41;;;17.84;42.49
34983;BME280;21187;50.976;13.720;2022-10-31T02:15:24;98671.59;;;17.79;42.41
34983;BME280;21187;50.976;13.720;2022-10-31T02:20:55;98668.47;;;17.81;42.26
34983;BME280;21187;50.976;13.720;2022-10-31T02:31:45;98664.53;;;17.71;42.50
34983;BME280;21187;50.976;13.720;2022-10-31T02:47:16;98678.84;;;17.39;43.12
34983;BME280;21187;50.976;13.720;2022-10-31T02:52:27;98677.66;;;17.33;43.09
34983;BME280;21187;50.976;13.720;2022-10-31T02:57:37;98681.50;;;17.21;43.45
34983;BME280;21187;50.976;13.720;2022-10-31T03:08:38;98693.06;;;16.96;43.91
34983;BME280;21187;50.976;13.720;2022-10-31T03:14:11;98693.78;;;16.90;44.04
34983;BME280;21187;50.976;13.720;2022-10-31T03:19:24;98695.69;;;16.86;44.30
34983;BME280;21187;50.976;13.720;2022-10-31T03:24:31;98697.59;;;16.82;44.29
34983;BME280;21187;50.976;13.720;2022-10-31T03:29:36;98696.03;;;16.80;44.14
34983;BME280;21187;50.976;13.720;2022-10-31T03:34:41;98699.06;;;16.72;44.44
34983;BME280;21187;50.976;13.720;2022-10-31T03:39:46;98694.66;;;16.60;44.73
34983;BME280;21187;50.976;13.720;2022-10-31T03:44:55;98708.28;;;16.53;45.03
34983;BME280;21187;50.976;13.720;2022-10-31T03:49:57;98703.59;;;16.53;44.89
34983;BME280;21187;50.976;13.720;2022-10-31T03:55:06;98702.19;;;16.70;44.69
34983;BME280;21187;50.976;13.720;2022-10-31T04:00:11;98712.78;;;16.75;44.61
34983;BME280;21187;50.976;13.720;2022-10-31T04:05:21;98706.50;;;16.71;44.58
34983;BME280;21187;50.976;13.720;2022-10-31T04:10:25;98713.84;;;16.63;44.91
34983;BME280;21187;50.976;13.720;2022-10-31T04:15:35;98711.47;;;16.58;44.90
34983;BME280;21187;50.976;13.720;2022-10-31T04:20:40;98712.25;;;16.59;45.00
34983;BME280;21187;50.976;13.720;2022-10-31T04:25:44;98713.47;;;16.65;44.94
34983;BME280;21187;50.976;13.720;2022-10-31T04:30:46;98717.03;;;16.69;44.81
34983;BME280;21187;50.976;13.720;2022-10-31T04:35:48;98716.28;;;16.72;44.96
34983;BME280;21187;50.976;13.720;2022-10-31T04:40:50;98718.72;;;16.85;44.65
34983;BME280;21187;50.976;13.720;2022-10-31T04:46:18;98725.09;;;16.96;44.63
34983;BME280;21187;50.976;13.720;2022-10-31T04:51:20;98725.16;;;17.03;44.37
34983;BME280;21187;50.976;13.720;2022-10-31T04:56:22;98727.91;;;17.07;44.39
34983;BME280;21187;50.976;13.720;2022-10-31T05:01:30;98725.53;;;17.02;44.75
34983;BME280;21187;50.976;13.720;2022-10-31T05:06:34;98725.84;;;16.93;44.83
34983;BME280;21187;50.976;13.720;2022-10-31T05:11:36;98728.09;;;16.84;45.00
34983;BME280;21187;50.976;13.720;2022-10-31T05:16:55;98729.56;;;16.74;45.03
34983;BME280;21187;50.976;13.720;2022-10-31T05:22:23;98726.41;;;16.68;45.39
34983;BME280;21187;50.976;13.720;2022-10-31T05:27:25;98723.31;;;16.73;45.37
34983;BME280;21187;50.976;13.720;2022-10-31T05:32:26;98725.69;;;16.78;45.39
34983;BME280;21187;50.976;13.720;2022-10-31T05:37:49;98725.78;;;16.86;45.22
34983;BME280;21187;50.976;13.720;2022-10-31T05:42:52;98727.75;;;16.89;45.22
34983;BME280;21187;50.976;13.720;2022-10-31T05:48:00;98721.13;;;16.90;45.36
34983;BME280;21187;50.976;13.720;2022-10-31T05:53:42;98738.34;;;16.90;45.42
34983;BME280;21187;50.976;13.720;2022-10-31T05:58:47;98740.72;;;16.95;45.47
34983;BME280;21187;50.976;13.720;2022-10-31T06:03:49;98743.09;;;17.01;45.37
34983;BME280;21187;50.976;13.720;2022-10-31T06:08:53;98747.84;;;17.07;45.07
34983;BME280;21187;50.976;13.720;2022-10-31T06:13:56;98747.03;;;17.03;45.13
34983;BME280;21187;50.976;13.720;2022-10-31T06:19:06;98750.84;;;16.91;45.34
34983;BME280;21187;50.976;13.720;2022-10-31T06:24:08;98752.81;;;16.91;45.88
34983;BME280;21187;50.976;13.720;2022-10-31T06:29:28;98757.97;;;17.03;45.55
34983;BME280;21187;50.976;13.720;2022-10-31T06:34:37;98758.88;;;17.18;45.43
34983;BME280;21187;50.976;13.720;2022-10-31T06:39:39;98766.66;;;17.12;46.01
34983;BME280;21187;50.976;13.720;2022-10-31T06:44:44;98767.75;;;17.56;45.38
34983;BME280;21187;50.976;13.720;2022-10-31T06:50:05;98771.75;;;17.70;45.21
34983;BME280;21187;50.976;13.720;2022-10-31T06:55:08;98779.66;;;17.86;44.90
34983;BME280;21187;50.976;13.720;2022-10-31T07:00:11;98786.00;;;17.97;44.90
34983;BME280;21187;50.976;13.720;2022-10-31T07:05:22;98782.19;;;18.23;44.82
34983;BME280;21187;50.976;13.720;2022-10-31T07:10:25;98787.75;;;18.41;44.62
34983;BME280;21187;50.976;13.720;2022-10-31T07:15:35;98792.88;;;18.61;44.29
34983;BME280;21187;50.976;13.720;2022-10-31T07:20:37;98801.91;;;18.72;44.31
34983;BME280;21187;50.976;13.720;2022-10-31T07:25:40;98804.31;;;18.85;44.16
34983;BME280;21187;50.976;13.720;2022-10-31T07:31:05;98812.97;;;19.08;43.83
34983;BME280;21187;50.976;13.720;2022-10-31T07:36:07;98811.41;;;19.29;43.73
34983;BME280;21187;50.976;13.720;2022-10-31T07:41:09;98807.47;;;19.44;43.57
34983;BME280;21187;50.976;13.720;2022-10-31T07:46:16;98810.59;;;19.61;43.49
34983;BME280;21187;50.976;13.720;2022-10-31T07:51:36;98815.28;;;19.71;43.14
34983;BME280;21187;50.976;13.720;2022-10-31T07:57:00;98824.66;;;19.99;43.04
34983;BME280;21187;50.976;13.720;2022-10-31T08:02:02;98809.69;;;20.22;42.95
34983;BME280;21187;50.976;13.720;2022-10-31T08:07:04;98809.56;;;20.43;43.10
34983;BME280;21187;50.976;13.720;2022-10-31T08:12:09;98803.97;;;20.61;42.80
34983;BME280;21187;50.976;13.720;2022-10-31T08:17:12;98811.72;;;20.85;42.51
34983;BME280;21187;50.976;13.720;2022-10-31T08:22:35;98803.31;;;21.06;42.39
34983;BME280;21187;50.976;13.720;2022-10-31T08:27:51;98803.56;;;21.23;42.12
34983;BME280;21187;50.976;13.720;2022-10-31T08:38:31;98806.50;;;21.50;42.01
34983;BME280;21187;50.976;13.720;2022-10-31T08:43:33;98799.28;;;21.67;41.70
34983;BME280;21187;50.976;13.720;2022-10-31T08:48:35;98809.56;;;21.63;41.54
34983;BME280;21187;50.976;13.720;2022-10-31T08:53:37;98804.03;;;21.63;41.71
34983;BME280;21187;50.976;13.720;2022-10-31T08:59:02;98804.53;;;21.92;41.64
34983;BME280;21187;50.976;13.720;2022-10-31T09:04:16;98801.75;;;22.27;41.15
34983;BME280;21187;50.976;13.720;2022-10-31T09:09:18;98802.59;;;22.55;40.97
34983;BME280;21187;50.976;13.720;2022-10-31T09:14:20;98806.59;;;22.77;40.57
34983;BME280;21187;50.976;13.720;2022-10-31T09:19:41;98816.63;;;22.95;40.66
34983;BME280;21187;50.976;13.720;2022-10-31T09:24:42;98813.88;;;22.95;40.50
34983;BME280;21187;50.976;13.720;2022-10-31T09:29:44;98817.59;;;23.08;40.30
34983;BME280;21187;50.976;13.720;2022-10-31T09:34:47;98824.16;;;23.18;40.17
34983;BME280;21187;50.976;13.720;2022-10-31T09:39:53;98822.44;;;23.28;40.09
34983;BME280;21187;50.976;13.720;2022-10-31T09:46:07;98813.66;;;23.33;39.96
34983;BME280;21187;50.976;13.720;2022-10-31T09:50:50;98807.59;;;23.18;39.75
34983;BME280;21187;50.976;13.720;2022-10-31T09:56:18;98803.81;;;23.32;39.66
34983;BME280;21187;50.976;13.720;2022-10-31T10:06:35;98806.63;;;23.52;39.58
34983;BME280;21187;50.976;13.720;2022-10-31T10:22:50;98791.25;;;23.95;39.07
34983;BME280;21187;50.976;13.720;2022-10-31T10:33:11;98786.56;;;23.92;39.73
34983;BME280;21187;50.976;13.720;2022-10-31T10:38:36;98784.25;;;23.87;39.92
34983;BME280;21187;50.976;13.720;2022-10-31T10:43:39;98786.75;;;23.81;40.49
34983;BME280;21187;50.976;13.720;2022-10-31T10:48:51;98770.09;;;23.85;40.23
34983;BME280;21187;50.976;13.720;2022-10-31T10:59:22;98776.03;;;23.83;40.96
34983;BME280;21187;50.976;13.720;2022-10-31T11:04:36;98764.69;;;23.77;40.51
34983;BME280;21187;50.976;13.720;2022-10-31T11:09:41;98774.28;;;23.73;40.80
34983;BME280;21187;50.976;13.720;2022-10-31T11:14:49;98761.59;;;23.75;40.73
34983;BME280;21187;50.976;13.720;2022-10-31T11:20:31;98750.53;;;23.75;40.49
34983;BME280;21187;50.976;13.720;2022-10-31T11:25:33;98753.41;;;23.68;40.20
34983;BME280;21187;50.976;13.720;2022-10-31T11:30:43;98742.84;;;23.63;40.46
34983;BME280;21187;50.976;13.720;2022-10-31T11:35:47;98745.13;;;23.68;40.45
34983;BME280;21187;50.976;13.720;2022-10-31T11:41:03;98738.16;;;23.80;39.97
34983;BME280;21187;50.976;13.720;2022-10-31T11:46:11;98731.94;;;23.96;40.07
34983;BME280;21187;50.976;13.720;2022-10-31T11:51:32;98730.59;;;24.04;39.66
34983;BME280;21187;50.976;13.720;2022-10-31T11:56:39;98727.81;;;24.04;39.80
34983;BME280;21187;50.976;13.720;2022-10-31T12:01:47;98719.72;;;24.14;39.28
34983;BME280;21187;50.976;13.720;2022-10-31T12:06:50;98711.19;;;24.24;39.44
34983;BME280;21187;50.976;13.720;2022-10-31T12:22:45;98691.06;;;24.57;38.87
34983;BME280;21187;50.976;13.720;2022-10-31T12:27:53;98691.50;;;24.55;38.84
34983;BME280;21187;50.976;13.720;2022-10-31T12:33:09;98686.94;;;24.65;38.68
34983;BME280;21187;50.976;13.720;2022-10-31T13:10:05;98640.69;;;30.78;32.35
34983;BME280;21187;50.976;13.720;2022-10-31T13:15:18;98638.38;;;32.56;30.30
34983;BME280;21187;50.976;13.720;2022-10-31T13:25:38;98623.81;;;34.90;27.32
34983;BME280;21187;50.976;13.720;2022-10-31T13:30:42;98619.88;;;35.48;27.06
34983;BME280;21187;50.976;13.720;2022-10-31T13:41:21;98614.13;;;36.50;25.63
34983;BME280;21187;50.976;13.720;2022-10-31T13:46:34;98604.63;;;36.59;24.86
34983;BME280;21187;50.976;13.720;2022-10-31T13:51:37;98609.09;;;36.09;25.09
34983;BME280;21187;50.976;13.720;2022-10-31T13:56:39;98598.88;;;35.94;24.90
34983;BME280;21187;50.976;13.720;2022-10-31T14:01:56;98601.41;;;36.15;24.87
34983;BME280;21187;50.976;13.720;2022-10-31T14:12:29;98599.91;;;31.85;28.17
34983;BME280;21187;50.976;13.720;2022-10-31T14:17:39;98592.72;;;29.97;29.55
34983;BME280;21187;50.976;13.720;2022-10-31T14:22:46;98597.22;;;28.68;30.74
34983;BME280;21187;50.976;13.720;2022-10-31T14:27:48;98605.91;;;27.80;31.58
34983;BME280;21187;50.976;13.720;2022-10-31T14:32:56;98592.34;;;26.93;32.33
34983;BME280;21187;50.976;13.720;2022-10-31T14:53:52;98585.03;;;24.89;34.40
34983;BME280;21187;50.976;13.720;2022-10-31T14:58:58;98570.34;;;24.59;34.96
34983;BME280;21187;50.976;13.720;2022-10-31T15:04:12;98567.53;;;24.30;35.80
34983;BME280;21187;50.976;13.720;2022-10-31T15:09:32;98567.69;;;23.90;35.94
34983;BME280;21187;50.976;13.720;2022-10-31T15:14:34;98570.34;;;23.57;36.58
34983;BME280;21187;50.976;13.720;2022-10-31T15:19:36;98571.25;;;23.34;37.00
34983;BME280;21187;50.976;13.720;2022-10-31T15:24:39;98570.09;;;23.11;37.17
34983;BME280;21187;50.976;13.720;2022-10-31T15:29:50;98549.31;;;22.83;37.78
34983;BME280;21187;50.976;13.720;2022-10-31T15:34:54;98553.75;;;22.56;37.94
34983;BME280;21187;50.976;13.720;2022-10-31T15:40:07;98555.06;;;22.24;38.58
34983;BME280;21187;50.976;13.720;2022-10-31T15:50:20;98548.06;;;21.65;39.49
34983;BME280;21187;50.976;13.720;2022-10-31T15:55:25;98529.56;;;21.35;39.87
34983;BME280;21187;50.976;13.720;2022-10-31T16:00:36;98528.22;;;21.16;40.06
34983;BME280;21187;50.976;13.720;2022-10-31T16:05:46;98521.31;;;21.00;40.44
34983;BME280;21187;50.976;13.720;2022-10-31T16:10:48;98524.69;;;20.81;40.65
34983;BME280;21187;50.976;13.720;2022-10-31T16:15:54;98520.19;;;20.56;41.18
34983;BME280;21187;50.976;13.720;2022-10-31T16:21:27;98522.41;;;20.30;41.87
34983;BME280;21187;50.976;13.720;2022-10-31T16:26:30;98519.84;;;20.08;42.10
34983;BME280;21187;50.976;13.720;2022-10-31T16:31:39;98521.16;;;19.93;42.64
34983;BME280;21187;50.976;13.720;2022-10-31T16:36:41;98525.16;;;19.81;42.67
34983;BME280;21187;50.976;13.720;2022-10-31T16:41:46;98519.25;;;19.79;42.91
34983;BME280;21187;50.976;13.720;2022-10-31T16:47:12;98527.16;;;19.73;42.74
34983;BME280;21187;50.976;13.720;2022-10-31T16:52:16;98521.75;;;19.59;43.08
34983;BME280;21187;50.976;13.720;2022-10-31T16:57:24;98518.25;;;19.48;43.64
34983;BME280;21187;50.976;13.720;2022-10-31T17:02:28;98521.06;;;19.40;43.74
34983;BME280;21187;50.976;13.720;2022-10-31T17:07:30;98518.75;;;19.32;43.62
34983;BME280;21187;50.976;13.720;2022-10-31T17:12:32;98513.28;;;19.24;44.04
34983;BME280;21187;50.976;13.720;2022-10-31T17:17:34;98514.88;;;19.15;44.11
34983;BME280;21187;50.976;13.720;2022-10-31T17:22:36;98510.22;;;19.08;44.47
34983;BME280;21187;50.976;13.720;2022-10-31T17:27:43;98515.00;;;18.93;44.99
34983;BME280;21187;50.976;13.720;2022-10-31T17:32:48;98507.13;;;18.88;44.97
34983;BME280;21187;50.976;13.720;2022-10-31T17:37:50;98496.94;;;18.92;44.88
34983;BME280;21187;50.976;13.720;2022-10-31T17:42:55;98490.28;;;18.93;45.07
34983;BME280;21187;50.976;13.720;2022-10-31T17:47:57;98489.09;;;18.87;45.13
34983;BME280;21187;50.976;13.720;2022-10-31T17:52:59;98489.91;;;18.80;45.31
34983;BME280;21187;50.976;13.720;2022-10-31T17:58:02;98488.38;;;18.72;45.54
34983;BME280;21187;50.976;13.720;2022-10-31T18:03:04;98485.63;;;18.68;45.77
34983;BME280;21187;50.976;13.720;2022-10-31T18:08:06;98484.06;;;18.67;45.73
34983;BME280;21187;50.976;13.720;2022-10-31T18:13:08;98480.56;;;18.63;45.86
34983;BME280;21187;50.976;13.720;2022-10-31T18:18:10;98485.25;;;18.66;46.06
34983;BME280;21187;50.976;13.720;2022-10-31T18:23:11;98478.19;;;18.65;46.01
34983;BME280;21187;50.976;13.720;2022-10-31T18:28:13;98479.81;;;18.52;46.44
34983;BME280;21187;50.976;13.720;2022-10-31T18:33:15;98473.94;;;18.50;46.51
34983;BME280;21187;50.976;13.720;2022-10-31T18:38:17;98468.06;;;18.48;46.61
34983;BME280;21187;50.976;13.720;2022-10-31T18:43:19;98461.78;;;18.43;46.64
34983;BME280;21187;50.976;13.720;2022-10-31T18:48:21;98464.94;;;18.38;46.87
34983;BME280;21187;50.976;13.720;2022-10-31T18:53:24;98460.25;;;18.35;46.89
34983;BME280;21187;50.976;13.720;2022-10-31T18:58:27;98454.78;;;18.28;47.07
34983;BME280;21187;50.976;13.720;2022-10-31T19:03:29;98448.53;;;18.17;47.04
34983;BME280;21187;50.976;13.720;2022-10-31T19:08:32;98447.75;;;18.05;47.29
34983;BME280;21187;50.976;13.720;2022-10-31T19:13:35;98441.50;;;17.94;47.44
34983;BME280;21187;50.976;13.720;2022-10-31T19:18:38;98443.84;;;17.85;47.57
34983;BME280;21187;50.976;13.720;2022-10-31T19:23:40;98445.00;;;17.69;47.82
34983;BME280;21187;50.976;13.720;2022-10-31T19:28:43;98437.56;;;17.59;47.91
34983;BME280;21187;50.976;13.720;2022-10-31T19:33:46;98428.19;;;17.53;47.92
34983;BME280;21187;50.976;13.720;2022-10-31T19:38:50;98422.69;;;17.53;48.00
34983;BME280;21187;50.976;13.720;2022-10-31T19:43:54;98417.59;;;17.55;48.14
34983;BME280;21187;50.976;13.720;2022-10-31T19:48:56;98422.69;;;17.60;47.87
34983;BME280;21187;50.976;13.720;2022-10-31T19:53:59;98413.31;;;17.61;47.69
34983;BME280;21187;50.976;13.720;2022-10-31T19:59:01;98402.34;;;17.61;47.72
34983;BME280;21187;50.976;13.720;2022-10-31T20:04:05;98393.75;;;17.59;47.73
34983;BME280;21187;50.976;13.720;2022-10-31T20:09:09;98379.28;;;17.44;47.87
34983;BME280;21187;50.976;13.720;2022-10-31T20:14:16;98383.56;;;17.41;48.16
34983;BME280;21187;50.976;13.720;2022-10-31T20:19:18;98406.63;;;17.19;49.00
34983;BME280;21187;50.976;13.720;2022-10-31T20:24:20;98398.34;;;16.97;49.55
34983;BME280;21187;50.976;13.720;2022-10-31T20:29:22;98385.50;;;17.12;49.41
34983;BME280;21187;50.976;13.720;2022-10-31T20:34:24;98381.97;;;17.26;48.97
34983;BME280;21187;50.976;13.720;2022-10-31T20:39:26;98378.88;;;17.31;48.73
34983;BME280;21187;50.976;13.720;2022-10-31T20:44:29;98365.56;;;17.29;48.86
34983;BME280;21187;50.976;13.720;2022-10-31T20:49:31;98360.88;;;17.30;48.67
34983;BME280;21187;50.976;13.720;2022-10-31T20:54:35;98358.53;;;17.39;48.62
34983;BME280;21187;50.976;13.720;2022-10-31T20:59:37;98359.72;;;17.45;48.54
34983;BME280;21187;50.976;13.720;2022-10-31T21:04:42;98355.41;;;17.52;48.41
34983;BME280;21187;50.976;13.720;2022-10-31T21:09:44;98351.50;;;17.53;48.48
34983;BME280;21187;50.976;13.720;2022-10-31T21:14:49;98340.94;;;17.55;48.54
34983;BME280;21187;50.976;13.720;2022-10-31T21:19:51;98335.44;;;17.55;48.47
34983;BME280;21187;50.976;13.720;2022-10-31T21:24:53;98342.88;;;17.61;48.40
34983;BME280;21187;50.976;13.720;2022-10-31T21:29:55;98340.53;;;17.56;48.40
34983;BME280;21187;50.976;13.720;2022-10-31T21:34:56;98344.47;;;17.55;48.47
34983;BME280;21187;50.976;13.720;2022-10-31T21:39:58;98324.13;;;17.53;48.49
34983;BME280;21187;50.976;13.720;2022-10-31T21:45:00;98314.34;;;17.44;48.69
34983;BME280;21187;50.976;13.720;2022-10-31T21:50:02;98305.34;;;17.33;48.99
34983;BME280;21187;50.976;13.720;2022-10-31T21:55:04;98299.09;;;17.25;49.32
34983;BME280;21187;50.976;13.720;2022-10-31T22:00:07;98291.28;;;17.24;49.50
34983;BME280;21187;50.976;13.720;2022-10-31T22:05:10;98294.03;;;17.24;49.56
34983;BME280;21187;50.976;13.720;2022-10-31T22:10:11;98288.16;;;17.25;49.51
34983;BME280;21187;50.976;13.720;2022-10-31T22:15:13;98290.88;;;17.22;49.73
34983;BME280;21187;50.976;13.720;2022-10-31T22:20:15;98283.06;;;17.17;49.91
34983;BME280;21187;50.976;13.720;2022-10-31T22:25:17;98286.19;;;17.15;49.90
34983;BME280;21187;50.976;13.720;2022-10-31T22:30:19;98287.38;;;17.10;49.82
34983;BME280;21187;50.976;13.720;2022-10-31T22:35:21;98279.50;;;16.84;50.51
34983;BME280;21187;50.976;13.720;2022-10-31T22:40:22;98266.19;;;16.64;51.03
34983;BME280;21187;50.976;13.720;2022-10-31T22:45:24;98263.06;;;16.62;50.89
34983;BME280;21187;50.976;13.720;2022-10-31T22:50:26;98255.25;;;16.50;50.88
34983;BME280;21187;50.976;13.720;2022-10-31T22:55:28;98259.50;;;16.43;51.04
34983;BME280;21187;50.976;13.720;2022-10-31T23:00:30;98254.78;;;16.33;51.18
34983;BME280;21187;50.976;13.720;2022-10-31T23:05:32;98252.00;;;16.19;51.26
34983;BME280;21187;50.976;13.720;2022-10-31T23:10:34;98248.09;;;16.16;51.41
34983;BME280;21187;50.976;13.720;2022-10-31T23:15:41;98246.53;;;16.15;50.86
34983;BME280;21187;50.976;13.720;2022-10-31T23:20:49;98234.84;;;16.14;51.15
34983;BME280;21187;50.976;13.720;2022-10-31T23:25:51;98231.59;;;15.84;51.87
34983;BME280;21187;50.976;13.720;2022-10-31T23:31:12;98224.66;;;16.08;50.63
34983;BME280;21187;50.976;13.720;2022-10-31T23:36:15;98210.59;;;16.02;50.81
34983;BME280;21187;50.976;13.720;2022-10-31T23:41:17;98207.06;;;15.98;51.09
34983;BME280;21187;50.976;13.720;2022-10-31T23:46:18;98198.69;;;15.62;52.31
34983;BME280;21187;50.976;13.720;2022-10-31T23:51:20;98187.13;;;15.87;51.51
34983;BME280;21187;50.976;13.720;2022-10-31T23:56:22;98183.25;;;15.88;51.46
